createdAt,value
2018-05-18T05:00:28.207Z,19.50
2018-05-18T05:02:55.753Z,16.70
2018-05-18T05:05:23.270Z,29.63
2018-05-18T05:07:51.568Z,18.97
2018-05-18T05:10:19.096Z,18.50
2018-05-18T05:12:46.702Z,24.33
2018-05-18T05:15:14.219Z,18.80
2018-05-18T05:17:41.742Z,24.63
2018-05-18T05:20:09.275Z,27.70
2018-05-18T05:22:36.791Z,23.97
2018-05-18T05:25:05.083Z,21.43
2018-05-18T05:27:33.394Z,23.80
2018-05-18T05:30:00.927Z,21.23
2018-05-18T05:32:29.218Z,18.53
2018-05-18T05:34:56.750Z,25.67
2018-05-18T05:37:25.066Z,21.10
2018-05-18T05:39:52.587Z,24.83
2018-05-18T05:42:20.107Z,23.93
2018-05-18T05:44:47.667Z,23.03
2018-05-18T05:47:15.188Z,19.37
2018-05-18T05:49:42.703Z,21.37
2018-05-18T05:52:10.227Z,23.97
2018-05-18T05:54:37.758Z,22.30
2018-05-18T05:57:05.276Z,18.13
2018-05-18T05:59:32.831Z,24.00
2018-05-18T06:02:01.111Z,23.27
2018-05-18T06:04:29.422Z,23.37
2018-05-18T06:06:57.863Z,27.20
2018-05-18T06:09:26.138Z,27.07
2018-05-18T06:11:54.434Z,26.30
2018-05-18T06:14:21.983Z,24.23
2018-05-18T06:16:49.507Z,23.53
2018-05-18T06:19:17.015Z,23.80
2018-05-18T06:21:44.543Z,26.47
2018-05-18T06:24:12.076Z,19.53
2018-05-18T06:26:39.592Z,20.93
2018-05-18T06:29:07.143Z,20.60
2018-05-18T06:31:35.825Z,27.37
2018-05-18T06:34:04.123Z,21.53
2018-05-18T06:36:31.634Z,22.53
2018-05-18T06:38:59.165Z,24.03
2018-05-18T06:41:26.684Z,21.47
2018-05-18T06:43:56.127Z,24.17
2018-05-18T06:46:25.588Z,22.97
2018-05-18T06:48:55.119Z,22.23
2018-05-18T06:51:24.673Z,20.83
2018-05-18T06:53:54.018Z,24.97
2018-05-18T06:56:23.306Z,21.77
2018-05-18T06:58:52.660Z,23.70
2018-05-18T07:01:22.075Z,26.03
2018-05-18T07:03:51.411Z,27.23
2018-05-18T07:06:20.834Z,30.20
2018-05-18T07:08:48.393Z,27.80
2018-05-18T07:11:15.928Z,22.23
2018-05-18T07:13:43.498Z,21.77
2018-05-18T07:16:13.136Z,23.53
2018-05-18T07:18:40.663Z,31.93
2018-05-18T07:21:09.865Z,28.90
2018-05-18T07:23:37.388Z,20.70
2018-05-18T07:26:06.406Z,29.30
2018-05-18T07:28:36.617Z,27.27
2018-05-18T07:31:06.675Z,28.47
2018-05-18T07:33:35.854Z,28.83
2018-05-18T07:36:05.257Z,29.60
2018-05-18T07:38:32.932Z,25.97
2018-05-18T07:41:00.460Z,35.93
2018-05-18T07:43:28.016Z,23.37
2018-05-18T07:45:56.300Z,29.20
2018-05-18T07:48:24.587Z,34.93
2018-05-18T07:50:52.107Z,31.90
2018-05-18T07:53:19.637Z,25.20
2018-05-18T07:55:47.163Z,30.53
2018-05-18T07:58:14.698Z,24.97
2018-05-18T08:00:42.223Z,25.70
2018-05-18T08:03:09.760Z,29.63
2018-05-18T08:05:37.844Z,32.00
2018-05-18T08:08:05.358Z,29.17
2018-05-18T08:10:33.654Z,36.87
2018-05-18T08:13:01.163Z,31.27
2018-05-18T08:15:28.686Z,35.50
2018-05-18T08:17:56.208Z,31.70
2018-05-18T08:20:24.583Z,36.47
2018-05-18T08:22:52.034Z,32.97
2018-05-18T08:25:19.576Z,33.80
2018-05-18T08:27:47.167Z,26.80
2018-05-18T08:30:14.634Z,28.03
2018-05-18T08:32:42.169Z,31.33
2018-05-18T08:35:10.249Z,31.43
2018-05-18T08:37:40.244Z,31.20
2018-05-18T09:00:19.241Z,31.70
2018-05-18T09:02:49.317Z,35.50
2018-05-18T09:05:18.592Z,28.87
2018-05-18T09:07:48.045Z,34.33
2018-05-18T09:10:17.417Z,28.30
2018-05-18T09:12:47.838Z,29.83
2018-05-18T09:15:17.411Z,29.57
2018-05-18T09:17:46.752Z,25.23
2018-05-18T09:20:14.386Z,31.17
2018-05-18T09:22:41.920Z,30.03
2018-05-18T09:25:10.207Z,28.83
2018-05-18T09:27:39.518Z,24.63
2018-05-18T09:30:08.915Z,30.73
2018-05-18T09:32:36.447Z,36.27
2018-05-18T09:35:04.731Z,28.80
2018-05-18T09:37:33.042Z,25.07
2018-05-18T09:40:00.573Z,26.17
2018-05-18T09:42:28.864Z,33.20
2018-05-18T09:44:56.440Z,28.07
2018-05-18T09:47:23.959Z,26.90
2018-05-18T09:49:52.278Z,29.83
2018-05-18T09:52:19.791Z,28.40
2018-05-18T09:54:48.193Z,27.53
2018-05-18T09:57:15.634Z,30.60
2018-05-18T09:59:43.928Z,31.83
2018-05-18T10:02:11.463Z,29.57
2018-05-18T10:04:39.759Z,28.37
2018-05-18T10:07:08.040Z,28.20
2018-05-18T10:09:35.554Z,26.23
2018-05-18T10:12:03.096Z,26.03
2018-05-18T10:14:30.626Z,32.63
2018-05-18T10:16:58.143Z,23.07
2018-05-18T10:19:25.675Z,22.93
2018-05-18T10:21:53.191Z,30.67
2018-05-18T10:24:20.719Z,24.73
2018-05-18T10:26:48.243Z,34.27
2018-05-18T10:29:15.766Z,27.87
2018-05-18T10:31:43.703Z,28.17
2018-05-18T10:34:13.151Z,28.93
2018-05-18T10:36:40.687Z,26.27
2018-05-18T10:39:08.967Z,22.57
2018-05-18T10:41:37.269Z,27.57
2018-05-18T10:44:04.831Z,30.13
2018-05-18T10:46:32.351Z,36.37
2018-05-18T10:49:00.639Z,26.17
2018-05-18T10:51:28.961Z,25.27
2018-05-18T10:53:56.501Z,26.47
2018-05-18T10:56:24.017Z,30.80
2018-05-18T10:58:51.532Z,30.03
2018-05-18T11:01:19.223Z,29.40
2018-05-18T11:03:47.741Z,28.07
2018-05-18T11:06:16.020Z,27.37
2018-05-18T11:08:44.310Z,24.07
2018-05-18T11:11:11.830Z,26.70
2018-05-18T11:13:39.355Z,21.30
2018-05-18T11:16:06.883Z,26.07
2018-05-18T11:18:34.410Z,23.27
2018-05-18T11:21:01.939Z,18.13
2018-05-18T11:23:29.469Z,23.97
2018-05-18T11:25:56.998Z,23.03
2018-05-18T11:28:25.587Z,25.43
2018-05-18T11:30:54.009Z,27.37
2018-05-18T11:33:21.740Z,23.20
2018-05-18T11:35:49.351Z,24.47
2018-05-18T11:38:17.013Z,27.37
2018-05-18T11:40:44.651Z,28.90
2018-05-18T11:43:14.055Z,24.83
2018-05-18T11:45:41.571Z,26.30
2018-05-18T11:48:09.911Z,33.10
2018-05-18T12:07:23.421Z,22.17
2018-05-18T12:09:50.956Z,23.37
2018-05-18T12:12:19.247Z,22.90
2018-05-18T12:14:46.787Z,25.77
2018-05-18T12:17:15.081Z,28.40
2018-05-18T12:19:42.591Z,26.93
2018-05-18T12:22:10.108Z,25.83
2018-05-18T12:24:37.650Z,21.77
2018-05-18T12:27:05.168Z,23.23
2018-05-18T12:29:32.718Z,22.93
2018-05-18T12:32:00.258Z,24.47
2018-05-18T12:34:27.809Z,16.30
2018-05-18T12:36:55.378Z,26.07
2018-05-18T12:39:22.903Z,20.77
2018-05-18T12:41:51.179Z,21.03
2018-05-18T12:44:19.696Z,20.27
2018-05-18T12:46:49.135Z,21.43
2018-05-18T12:49:18.393Z,20.10
2018-05-18T12:51:47.557Z,17.17
2018-05-18T12:54:18.056Z,19.17
2018-05-18T12:56:47.452Z,19.13
2018-05-18T12:59:14.971Z,21.63
2018-05-18T13:01:42.484Z,23.23
2018-05-18T13:04:10.007Z,20.10
2018-05-18T13:06:37.552Z,24.37
2018-05-18T13:09:06.014Z,16.87
2018-05-18T13:11:45.146Z,18.37
2018-05-18T13:14:12.669Z,20.33
2018-05-18T13:16:40.236Z,22.07
2018-05-18T13:19:07.785Z,17.00
2018-05-18T13:21:35.316Z,20.97
2018-05-18T13:24:02.836Z,17.77
2018-05-18T13:26:30.476Z,19.40
2018-05-18T13:28:58.030Z,20.43
2018-05-18T13:31:25.548Z,18.87
2018-05-18T13:33:53.064Z,18.93
2018-05-18T13:36:21.347Z,20.40
2018-05-18T13:38:48.940Z,19.07
2018-05-18T13:41:17.187Z,21.37
2018-05-18T13:43:45.471Z,20.77
2018-05-18T13:46:13.031Z,20.13
2018-05-18T13:48:40.566Z,19.33
2018-05-18T13:51:08.213Z,21.83
2018-05-18T13:53:35.669Z,18.07
2018-05-18T13:56:03.187Z,19.73
2018-05-18T13:58:30.700Z,24.33
2018-05-18T14:00:59.020Z,18.07
2018-05-18T14:03:26.526Z,23.30
2018-05-18T14:05:54.050Z,18.53
2018-05-18T14:08:21.592Z,20.53
2018-05-18T14:10:49.118Z,18.20
2018-05-18T14:13:16.647Z,15.77
2018-05-18T14:15:44.163Z,22.10
2018-05-18T14:18:11.693Z,20.10
2018-05-18T14:20:40.782Z,20.23
2018-05-18T14:23:08.302Z,23.57
2018-05-18T14:25:35.806Z,17.40
2018-05-18T14:28:04.124Z,22.07
2018-05-18T14:30:31.644Z,20.97
2018-05-18T14:32:59.920Z,27.37
2018-05-18T14:35:28.267Z,22.67
2018-05-18T14:37:56.149Z,21.60
2018-05-18T14:40:23.608Z,20.30
2018-05-18T14:42:51.911Z,21.77
2018-05-18T14:45:19.465Z,18.37
2018-05-18T14:47:47.176Z,19.20
2018-05-18T14:50:14.692Z,23.40
2018-05-18T14:52:42.215Z,22.50
2018-05-18T14:55:09.725Z,22.37
2018-05-18T14:57:37.239Z,19.97
2018-05-18T15:00:04.751Z,21.83
2018-05-18T15:02:32.283Z,19.97
2018-05-18T15:05:00.575Z,18.73
2018-05-18T15:07:28.106Z,15.37
2018-05-18T15:09:56.405Z,19.63
2018-05-18T15:12:23.922Z,18.67
2018-05-18T15:14:51.442Z,25.00
2018-05-18T15:17:19.002Z,14.17
2018-05-18T15:19:46.662Z,16.57
2018-05-18T15:22:14.189Z,18.57
2018-05-18T15:24:42.487Z,16.83
2018-05-18T15:27:10.027Z,15.93
2018-05-18T15:29:38.321Z,29.50
2018-05-18T15:32:05.837Z,21.07
2018-05-18T15:34:33.367Z,19.57
2018-05-18T15:37:00.960Z,16.20
2018-05-18T15:39:28.583Z,21.60
2018-05-18T15:41:56.109Z,22.27
2018-05-18T15:44:23.654Z,20.77
2018-05-18T15:46:51.958Z,20.23
2018-05-18T15:49:19.486Z,19.63
2018-05-18T15:54:21.803Z,22.43
2018-05-18T15:56:49.324Z,17.07
2018-05-18T15:59:16.875Z,24.43
2018-05-18T16:01:44.416Z,20.67
2018-05-18T16:04:11.956Z,19.60
2018-05-18T16:06:39.463Z,16.47
2018-05-18T16:09:06.975Z,14.50
2018-05-18T16:11:34.488Z,24.67
2018-05-18T16:14:03.148Z,18.03
2018-05-18T16:16:31.355Z,19.13
2018-05-18T16:18:59.699Z,18.17
2018-05-18T16:21:27.218Z,17.30
2018-05-18T16:23:54.736Z,19.63
2018-05-18T16:26:22.374Z,23.47
2018-05-18T16:28:50.039Z,26.03
2018-05-18T16:31:17.548Z,18.07
2018-05-18T16:33:45.075Z,16.70
2018-05-18T16:36:12.606Z,18.53
2018-05-18T16:38:40.124Z,14.20
2018-05-18T16:41:07.671Z,18.47
2018-05-18T16:43:35.960Z,17.00
2018-05-18T16:46:03.545Z,19.17
2018-05-18T16:48:31.350Z,20.67
2018-05-18T16:51:01.237Z,23.10
2018-05-18T16:53:28.750Z,20.20
2018-05-18T16:55:57.213Z,12.27
2018-05-18T16:58:24.728Z,26.53
2018-05-18T17:00:52.317Z,18.03
2018-05-18T17:03:19.987Z,24.40
2018-05-18T17:05:47.510Z,18.67
2018-05-18T17:08:15.035Z,19.23
2018-05-18T17:10:43.323Z,21.97
2018-05-18T17:13:10.832Z,16.83
2018-05-18T17:15:38.352Z,19.57
2018-05-18T17:18:06.990Z,20.27
2018-05-18T17:20:46.908Z,17.57
2018-05-18T17:23:25.485Z,16.87
2018-05-18T17:26:02.814Z,15.93
2018-05-18T17:28:30.348Z,15.10
2018-05-18T17:30:57.893Z,16.83
2018-05-18T17:33:25.406Z,18.50
2018-05-18T17:35:52.974Z,19.37
2018-05-18T17:38:30.423Z,19.63
2018-05-18T17:41:06.341Z,12.23
2018-05-18T17:43:47.775Z,21.97
2018-05-18T17:46:27.387Z,22.93
2018-05-18T17:49:03.605Z,17.03
2018-05-18T17:51:31.965Z,17.27
2018-05-18T17:54:00.381Z,14.97
2018-05-18T17:59:01.652Z,16.23
2018-05-18T18:01:31.951Z,13.63
2018-05-18T18:04:10.682Z,16.63
2018-05-18T18:06:42.926Z,16.10
2018-05-18T18:09:20.181Z,18.93
2018-05-18T18:14:40.471Z,18.23
2018-05-18T18:17:17.641Z,18.97
2018-05-18T18:19:57.786Z,15.00
2018-05-18T18:22:37.220Z,15.73
2018-05-18T18:25:21.124Z,15.87
2018-05-18T18:28:07.141Z,18.77
2018-05-18T18:30:47.871Z,19.13
2018-05-18T18:33:31.031Z,27.00
2018-05-18T18:36:12.138Z,18.87
2018-05-18T18:38:52.156Z,18.60
2018-05-18T18:41:39.115Z,18.57
2018-05-18T18:44:20.985Z,23.23
2018-05-18T18:46:53.496Z,18.83
2018-05-18T18:49:35.974Z,16.47
2018-05-18T18:52:18.639Z,21.73
2018-05-18T18:54:47.908Z,16.77
2018-05-18T18:57:28.732Z,17.27
2018-05-18T19:00:07.449Z,19.13
2018-05-18T19:02:46.672Z,18.03
2018-05-18T19:05:29.081Z,20.50
2018-05-18T19:08:14.781Z,19.57
2018-05-18T19:11:00.769Z,21.73
2018-05-18T19:13:38.668Z,18.07
2018-05-18T19:16:07.281Z,21.13
2018-05-18T19:18:36.671Z,24.23
2018-05-18T19:21:06.663Z,19.67
2018-05-18T19:23:35.979Z,19.53
2018-05-18T19:26:05.225Z,16.80
2018-05-18T19:28:35.381Z,21.97
2018-05-18T19:31:04.981Z,23.17
2018-05-18T19:33:34.346Z,25.43
2018-05-18T19:36:04.865Z,24.73
2018-05-18T19:38:33.951Z,29.83
2018-05-18T19:41:03.518Z,21.93
2018-05-18T19:43:32.194Z,21.33
2018-05-18T19:46:00.589Z,20.57
2018-05-18T19:48:30.528Z,26.23
2018-05-18T19:50:59.908Z,22.20
2018-05-18T19:53:29.361Z,23.90
2018-05-18T20:12:43.976Z,25.60
2018-05-18T20:15:12.359Z,22.10
2018-05-18T20:17:39.879Z,25.27
2018-05-18T20:20:08.163Z,33.27
2018-05-18T20:39:21.623Z,25.63
2018-05-18T20:41:49.130Z,25.20
2018-05-18T20:44:16.667Z,24.77
2018-05-18T20:46:44.175Z,28.90
2018-05-18T20:49:12.452Z,25.77
2018-05-18T20:51:40.750Z,28.27
2018-05-18T20:54:08.279Z,26.30
2018-05-18T20:56:35.795Z,26.07
2018-05-18T20:59:03.340Z,25.07
2018-05-18T21:01:30.864Z,26.07
2018-05-18T21:03:59.143Z,26.40
2018-05-18T21:06:27.434Z,22.03
2018-05-18T21:08:54.951Z,26.07
2018-05-18T21:11:23.251Z,24.70
2018-05-18T21:13:51.541Z,26.17
2018-05-18T21:16:19.821Z,28.57
2018-05-18T21:18:47.341Z,26.70
2018-05-18T21:38:02.751Z,26.43
2018-05-18T21:40:30.262Z,24.27
2018-05-18T21:42:57.828Z,24.70
2018-05-18T21:45:25.311Z,19.40
2018-05-18T21:47:52.817Z,25.63
2018-05-18T21:50:20.342Z,26.87
2018-05-18T21:52:48.630Z,21.53
2018-05-18T21:55:16.905Z,22.17
2018-05-18T21:57:45.229Z,25.33
2018-05-18T22:00:12.741Z,24.57
2018-05-18T22:02:41.023Z,22.77
2018-05-18T22:05:09.312Z,22.53
2018-05-18T22:07:36.836Z,23.87
2018-05-18T22:10:04.351Z,23.47
2018-05-18T22:12:31.860Z,22.00
2018-05-18T22:14:59.380Z,23.50
2018-05-18T22:34:13.310Z,20.73
2018-05-18T22:36:40.831Z,21.43
2018-05-18T22:39:08.350Z,23.47
2018-05-18T22:41:35.867Z,19.53
2018-05-18T22:44:04.165Z,25.77
2018-05-18T22:46:31.699Z,22.63
2018-05-18T22:48:59.975Z,22.63
2018-05-18T22:51:28.263Z,19.90
2018-05-18T22:53:55.784Z,20.10
2018-05-18T22:56:23.308Z,25.37
2018-05-18T22:58:50.823Z,19.80
